Norwegian Sea — C6DM2 — position and weather

sailwx.info

Track history (hours):
 
Tides and Currents Weather Stations Pressure Air Temp Water Temp Dewpoint Dewpoint Depression Visibility Wind Speed Wind Dir Waves Ship Positions

Norwegian Sea

Operator: Norwegian Cruise Line

Last reported at 2017-May-29 06:00 UTC. Time now 2017-May-29 11:31 UTC.
Position N 07°48' E 098°24'.

Length 216 m; draft 7.2 m.

Type: Passenger vessel. MMSI: 308188000.

Wind from 160 at 8 knots

Barometer 1006.0 mb
Air temperature 32.0 ° C
Visibility: greater than 5.4 NM
Dewpoint 29.4 ° C
Water temperature 30.0 ° C

Date/timePositionNaut miles runAvg speedWind from/ knotsBaromVisibWave heightAir tempDewpointWater temp
2017-May-29 06:00N 07°48' E 098°24'46 7.6 160 / 81006.0 5.4 32.029.430.0
2017-May-29 00:00N 07°06' E 098°42'48 8.0 170 / 91006.0 5.4 28.025.329.0
2017-May-28 18:00N 06°24' E 099°06'59 9.9 150 / 21007.0 5.4 30.027.430.0
2017-May-28 12:00N 05°42' E 099°48'1117.2 200 / 71005.0 5.4 30.026.027.0
2017-May-28 11:22N 05°43' E 099°59'913.0
2017-May-28 10:41N 05°38' E 100°06'413.0
2017-May-28 10:23N 05°37' E 100°10'512.5
2017-May-28 10:00N 05°35' E 100°14'612.4
2017-May-28 09:30N 05°31' E 100°19'611.5
2017-May-28 09:00N 05°25' E 100°21'0 0.6
2017-May-28 08:26N 05°25' E 100°21'0 0.0
2017-May-28 08:00N 05°25' E 100°21'0 0.0
2017-May-28 07:30N 05°25' E 100°21'0 0.0
2017-May-28 07:00N 05°25' E 100°21'0 0.0
2017-May-28 06:26N 05°25' E 100°21'3 6.8
2017-May-28 06:00N 05°24' E 100°18'349.9 200 / 61006.0 5.4 32.029.430.0
2017-May-28 05:56N 05°25' E 100°21'0 0.0
2017-May-28 05:20N 05°25' E 100°21'0 0.0
2017-May-28 05:00N 05°25' E 100°21'0 0.0
2017-May-28 04:28N 05°25' E 100°21'0 0.0
2017-May-28 03:52N 05°25' E 100°21'0 0.0
2017-May-28 03:22N 05°25' E 100°21'0 0.0
2017-May-28 02:52N 05°25' E 100°21'0 0.0
2017-May-28 02:30N 05°25' E 100°21'0 0.0
2017-May-28 02:00N 05°25' E 100°21'2 4.9
2017-May-28 01:30N 05°27' E 100°21'610.7
2017-May-28 00:59N 05°32' E 100°17'611.3
2017-May-28 00:29N 05°35' E 100°13'1428.1
2017-May-28 00:00N 05°30' E 100°00'10335.6 110 / 121006.0 5.4 28.025.329.0
2017-May-27 23:58N 05°36' E 100°07'3 6.3
2017-May-27 23:30N 05°35' E 100°05'1 0.3
2017-May-27 20:55N 05°35' E 100°05'0 0.5
2017-May-27 20:27N 05°36' E 100°05'0 0.5
2017-May-27 19:58N 05°36' E 100°05'0 0.5
2017-May-27 19:30N 05°36' E 100°05'0 0.8
2017-May-27 18:58N 05°37' E 100°05'1 0.7
2017-May-27 18:10N 05°37' E 100°05'527.6
2017-May-27 18:00N 05°36' E 100°00'412.0 180 / 81007.0 5.4 31.027.030.0
2017-May-27 17:38N 05°37' E 100°04'0 0.7
2017-May-27 17:28N 05°37' E 100°04'0 0.7
2017-May-27 17:00N 05°37' E 100°04'0 0.7
2017-May-27 16:30N 05°37' E 100°04'2 1.0
2017-May-27 14:58N 05°36' E 100°05'4 7.9
2017-May-27 14:29N 05°36' E 100°09'1010.8
2017-May-27 13:30N 05°31' E 100°18'612.9
2017-May-27 13:01N 05°26' E 100°21'0 0.8
2017-May-27 12:25N 05°25' E 100°21'0 0.0
2017-May-27 11:59N 05°25' E 100°21'0 0.0
2017-May-27 11:27N 05°25' E 100°21'0 0.0
2017-May-27 10:57N 05°25' E 100°21'0 0.0
2017-May-27 10:21N 05°25' E 100°21'0 0.0
2017-May-27 09:57N 05°25' E 100°21'0 0.0
2017-May-27 09:27N 05°25' E 100°21'0 0.0
2017-May-27 08:57N 05°25' E 100°21'0 0.0
2017-May-27 08:27N 05°25' E 100°21'0 0.0
2017-May-27 07:57N 05°25' E 100°21'0 0.0
2017-May-27 07:21N 05°25' E 100°21'0 0.0
2017-May-27 06:57N 05°25' E 100°21'0 0.0
2017-May-27 06:27N 05°25' E 100°21'3 6.5
2017-May-27 06:00N 05°24' E 100°18'382.0 340 / 51007.0 5.4 32.029.430.0
2017-May-27 05:57N 05°25' E 100°21'0 0.0
2017-May-27 05:27N 05°25' E 100°21'0 0.0
2017-May-27 04:57N 05°25' E 100°21'0 0.0
2017-May-27 04:27N 05°25' E 100°21'0 0.0
2017-May-27 03:57N 05°25' E 100°21'0 0.0
2017-May-27 03:27N 05°25' E 100°21'0 0.0
2017-May-27 03:00N 05°25' E 100°21'1 3.0
2017-May-27 02:30N 05°27' E 100°21'611.6
2017-May-27 02:00N 05°32' E 100°18'611.6
2017-May-27 01:30N 05°35' E 100°13'5 8.4
2017-May-27 00:54N 05°38' E 100°09'4 8.3
2017-May-27 00:26N 05°40' E 100°06'715.7
2017-May-27 00:00N 05°36' E 100°00'742.8 120 / 91007.0 5.4 28.025.329.0
2017-May-26 23:50N 05°40' E 100°06'1 1.3
2017-May-26 23:24N 05°39' E 100°06'0 1.1
2017-May-26 23:00N 05°39' E 100°06'1 0.8
2017-May-26 21:43N 05°38' E 100°06'1 0.5
2017-May-26 20:25N 05°38' E 100°05'0 0.4
2017-May-26 20:00N 05°38' E 100°05'0 0.7
2017-May-26 19:17N 05°38' E 100°04'0 0.7
2017-May-26 18:38N 05°39' E 100°04'0 0.5
2017-May-26 18:30N 05°39' E 100°04'0 0.5
2017-May-26 18:00N 05°39' E 100°04'41012.4
2017-May-26 18:00N 05°36' E 100°00'4 9.0 210 / 101007.0 5.4 30.027.430.0
2017-May-26 17:30N 05°39' E 100°03'0 0.3
2017-May-26 17:00N 05°39' E 100°03'0 0.5
2017-May-26 16:30N 05°38' E 100°03'1 0.7
2017-May-26 15:27N 05°38' E 100°03'1 2.4
2017-May-26 14:56N 05°37' E 100°04'4 7.9
2017-May-26 14:27N 05°37' E 100°08'1112.0
2017-May-26 13:30N 05°31' E 100°18'612.5
2017-May-26 13:00N 05°26' E 100°21'1 1.5
2017-May-26 12:30N 05°25' E 100°21'0 0.0
2017-May-26 12:00N 05°25' E 100°21'3719.3
2017-May-26 12:00N 05°24' E 100°18'3 6.0 180 / 91008.0 30.026.027.0
2017-May-26 11:30N 05°25' E 100°21'0 0.0
2017-May-26 11:00N 05°25' E 100°21'0 0.0
2017-May-26 10:30N 05°25' E 100°21'0 0.0
2017-May-26 10:00N 05°25' E 100°21'0 0.0
2017-May-26 09:30N 05°25' E 100°21'0 0.0
2017-May-26 09:00N 05°25' E 100°21'0 0.0
2017-May-26 08:30N 05°25' E 100°21'0 0.0
2017-May-26 08:00N 05°25' E 100°21'0 0.0
2017-May-26 07:30N 05°25' E 100°21'0 0.0
2017-May-26 07:00N 05°25' E 100°21'0 0.0
2017-May-26 06:30N 05°25' E 100°21'0 0.0
2017-May-26 06:00N 05°25' E 100°21'3719.4
2017-May-26 06:00N 05°24' E 100°18'3 6.0 170 / 91009.0 5.4 31.025.627.0
2017-May-26 05:30N 05°25' E 100°21'0 0.0
2017-May-26 05:00N 05°25' E 100°21'0 0.0
2017-May-26 04:30N 05°25' E 100°21'0 0.0
2017-May-26 04:00N 05°25' E 100°21'0 0.0
2017-May-26 03:24N 05°25' E 100°21'0 0.0
2017-May-26 03:00N 05°25' E 100°21'0 0.0
2017-May-26 02:30N 05°25' E 100°21'0 0.0
2017-May-26 02:00N 05°25' E 100°21'0 0.0
2017-May-26 01:30N 05°25' E 100°21'0 0.0
2017-May-26 01:00N 05°25' E 100°21'0 0.0
2017-May-26 00:25N 05°25' E 100°21'0 0.0
2017-May-26 00:01N 05°25' E 100°21'12681.2
2017-May-26 00:00N 05°18' E 100°30'1327.1 080 / 91006.0 5.4 28.025.329.0
2017-May-25 23:31N 05°27' E 100°21'510.5
2017-May-25 23:01N 05°32' E 100°18'611.2
2017-May-25 22:30N 05°35' E 100°13'6 9.9
2017-May-25 21:54N 05°38' E 100°08'8 2.0
2017-May-25 18:00N 05°36' E 100°00'5 6.7 190 / 141008.0 5.4 30.027.431.0
2017-May-25 17:13N 05°40' E 100°03'0 0.1
2017-May-25 17:00N 05°40' E 100°03'0 0.4
2017-May-25 16:29N 05°40' E 100°03'2 1.4
2017-May-25 15:21N 05°39' E 100°05'3 6.8
2017-May-25 14:56N 05°37' E 100°07'8 8.2
2017-May-25 13:59N 05°34' E 100°14'612.0
2017-May-25 13:30N 05°31' E 100°19'612.0
2017-May-25 13:00N 05°25' E 100°21'0 0.6
2017-May-25 12:29N 05°25' E 100°21'3 6.2
2017-May-25 12:00N 05°24' E 100°18'3234.5 210 / 91010.0 5.4 29.026.327.0
2017-May-25 11:59N 05°25' E 100°21'0 0.0
2017-May-25 11:29N 05°25' E 100°21'0 0.0
2017-May-25 10:59N 05°25' E 100°21'0 0.0
2017-May-25 10:29N 05°25' E 100°21'0 0.0
2017-May-25 09:59N 05°25' E 100°21'0 0.0
2017-May-25 09:29N 05°25' E 100°21'0 0.0
2017-May-25 08:59N 05°25' E 100°21'0 0.0
2017-May-25 08:29N 05°25' E 100°21'0 0.0
2017-May-25 07:59N 05°25' E 100°21'0 0.0
2017-May-25 07:29N 05°25' E 100°21'0 0.0
2017-May-25 06:59N 05°25' E 100°21'0 0.0
2017-May-25 06:23N 05°25' E 100°21'3 7.7
2017-May-25 06:00N 05°24' E 100°18'3229.6 220 / 151007.0 5.4 32.029.430.0
2017-May-25 05:59N 05°25' E 100°21'0 0.0
2017-May-25 05:29N 05°25' E 100°21'0 0.0
2017-May-25 04:59N 05°25' E 100°21'0 0.0
2017-May-25 04:29N 05°25' E 100°21'0 0.0
2017-May-25 03:59N 05°25' E 100°21'0 0.0
2017-May-25 03:29N 05°25' E 100°21'0 0.0
2017-May-25 02:59N 05°25' E 100°21'0 0.0
2017-May-25 02:23N 05°25' E 100°21'0 0.0
2017-May-25 01:59N 05°25' E 100°21'0 0.0
2017-May-25 01:29N 05°25' E 100°21'0 0.0
2017-May-25 01:00N 05°25' E 100°21'0 0.0
2017-May-25 00:25N 05°25' E 100°21'0 0.0
2017-May-25 00:00N 05°25' E 100°21'61024.3
2017-May-25 00:00N 05°30' E 100°18'4 8.1 150 / 61007.0 5.4 28.025.329.0
2017-May-24 23:31N 05°27' E 100°21'611.0
2017-May-24 23:01N 05°32' E 100°18'611.5
2017-May-24 22:31N 05°35' E 100°13'5 8.9
2017-May-24 21:56N 05°36' E 100°08'9 8.4
2017-May-24 20:51N 05°32' E 099°60'1 2.3
2017-May-24 20:31N 05°31' E 099°59'0 0.8
2017-May-24 20:00N 05°31' E 099°60'0 0.9
2017-May-24 19:29N 05°32' E 099°60'2 1.2
2017-May-24 18:00N 05°30' E 100°00'6 2.4 110 / 71008.0 5.4 30.027.429.0
2017-May-24 15:37N 05°35' E 100°02'1 4.1
2017-May-24 15:29N 05°35' E 100°02'3 6.0
2017-May-24 14:59N 05°36' E 100°05'3 7.3
2017-May-24 14:30N 05°36' E 100°09'1111.0
2017-May-24 13:30N 05°31' E 100°19'611.5
2017-May-24 13:00N 05°26' E 100°21'1 0.9
2017-May-24 12:28N 05°25' E 100°21'3 6.4
2017-May-24 12:00N 05°24' E 100°18'3100.9 320 / 91008.0 5.4 29.024.930.0
2017-May-24 11:58N 05°25' E 100°21'0 0.0
2017-May-24 11:28N 05°25' E 100°21'0 0.0
2017-May-24 11:00N 05°25' E 100°21'0 0.0
2017-May-24 10:30N 05°25' E 100°21'0 0.0
2017-May-24 09:54N 05°25' E 100°21'0 0.0
2017-May-24 09:30N 05°25' E 100°21'0 0.0
2017-May-24 09:00N 05°25' E 100°21'0 0.0
2017-May-24 08:30N 05°25' E 100°21'0 0.0
2017-May-24 08:00N 05°25' E 100°21'0 0.0
2017-May-24 07:30N 05°25' E 100°21'0 0.0
2017-May-24 07:00N 05°25' E 100°21'0 0.0
2017-May-24 06:30N 05°25' E 100°21'0 0.0
2017-May-24 06:00N 05°25' E 100°21'3838.8
2017-May-24 06:00N 05°24' E 100°18'3 6.1 220 / 61007.0 5.4 32.029.430.0
2017-May-24 05:30N 05°25' E 100°21'0 0.0
2017-May-24 05:00N 05°25' E 100°21'0 0.0
2017-May-24 04:30N 05°25' E 100°21'0 0.0
2017-May-24 04:00N 05°25' E 100°21'2 3.4
2017-May-24 03:30N 05°27' E 100°21'713.0
2017-May-24 03:00N 05°32' E 100°17'612.2
2017-May-24 02:29N 05°37' E 100°13'612.6
2017-May-24 02:01N 05°38' E 100°07'510.6
2017-May-24 01:30N 05°41' E 100°02'2114.1
2017-May-24 00:00N 05°48' E 099°42'55 9.2 200 / 51007.0 5.4 28.025.329.0
2017-May-23 18:00N 06°24' E 099°00'7913.2 320 / 41008.0 5.4 29.026.330.0
2017-May-23 12:00N 07°42' E 098°48'12 2.0 180 / 61006.0 5.4 30.026.030.0
2017-May-23 06:00N 07°54' E 098°48'13 2.2 260 / 161008.0 5.4 32.029.430.0
2017-May-23 00:00N 07°42' E 098°42'19 1.6 290 / 161008.0 5.4 30.027.430.0
2017-May-22 12:00N 07°48' E 098°24'0 0.0 250 / 101007.0 5.4 29.026.327.0
2017-May-22 06:00N 07°48' E 098°24'46 7.6 290 / 61009.0 5.4 32.029.430.0
2017-May-22 00:00N 07°06' E 098°42'48 8.0 290 / 201006.0 5.4 28.025.329.0
2017-May-21 18:00N 06°24' E 099°06'7210.1 260 / 81008.0 5.4 29.026.330.0
2017-May-21 10:52N 05°41' E 100°03'712.6
2017-May-21 10:21N 05°37' E 100°09'412.4
2017-May-21 10:00N 05°35' E 100°13'612.4
2017-May-21 09:30N 05°32' E 100°18'612.5
2017-May-21 09:00N 05°26' E 100°21'1 1.7
2017-May-21 08:25N 05°25' E 100°21'0 0.0
2017-May-21 07:49N 05°25' E 100°21'0 0.0
2017-May-21 07:25N 05°25' E 100°21'0 0.0
2017-May-21 06:55N 05°25' E 100°21'0 0.0
2017-May-21 06:25N 05°25' E 100°21'3 7.1
2017-May-21 06:00N 05°24' E 100°18'339.8 180 / 151006.0 5.4 32.029.430.0
2017-May-21 05:55N 05°25' E 100°21'0 0.0
2017-May-21 05:25N 05°25' E 100°21'0 0.0
2017-May-21 04:55N 05°25' E 100°21'0 0.0
2017-May-21 04:25N 05°25' E 100°21'0 0.0
2017-May-21 03:55N 05°25' E 100°21'0 0.0
2017-May-21 03:25N 05°25' E 100°21'0 0.0
2017-May-21 02:55N 05°25' E 100°21'0 0.0
2017-May-21 02:27N 05°25' E 100°21'0 0.0
2017-May-21 02:00N 05°25' E 100°21'2 2.9
2017-May-21 01:28N 05°27' E 100°21'612.5
2017-May-21 01:00N 05°32' E 100°18'611.8
2017-May-21 00:28N 05°35' E 100°13'1326.3
2017-May-21 00:00N 05°36' E 100°00'849.8 190 / 71006.0 5.4 28.025.329.0
2017-May-20 23:49N 05°39' E 100°08'6 4.6
2017-May-20 22:26N 05°42' E 100°03'1 0.7
2017-May-20 20:38N 05°41' E 100°02'1 0.9
2017-May-20 19:48N 05°40' E 100°02'0 1.0
2017-May-20 19:24N 05°40' E 100°02'0 0.9
2017-May-20 19:00N 05°39' E 100°03'1 0.9
2017-May-20 18:24N 05°39' E 100°03'4 9.3
2017-May-20 18:00N 05°36' E 100°00'432.4 200 / 61006.0 5.4 30.027.431.0
2017-May-20 17:53N 05°38' E 100°03'0 0.9
2017-May-20 17:28N 05°38' E 100°03'0 0.9
2017-May-20 17:00N 05°38' E 100°03'0 0.9
2017-May-20 16:30N 05°37' E 100°03'0 0.8
2017-May-20 16:00N 05°37' E 100°03'0 0.6
2017-May-20 15:29N 05°37' E 100°03'2 2.9
2017-May-20 14:53N 05°37' E 100°05'9 9.5
2017-May-20 13:55N 05°35' E 100°14'512.3
2017-May-20 13:29N 05°31' E 100°18'611.7
2017-May-20 13:00N 05°26' E 100°21'1 2.2
2017-May-20 12:29N 05°25' E 100°21'3 6.2
2017-May-20 12:00N 05°24' E 100°18'3287.0 220 / 81006.0 5.4 30.027.430.0
2017-May-20 11:59N 05°25' E 100°21'0 0.0
2017-May-20 11:29N 05°25' E 100°21'0 0.0
2017-May-20 10:59N 05°25' E 100°21'0 0.0
2017-May-20 10:29N 05°25' E 100°21'0 0.0
2017-May-20 09:59N 05°25' E 100°21'0 0.0
2017-May-20 09:26N 05°25' E 100°21'0 0.0
2017-May-20 09:00N 05°25' E 100°21'0 0.0
2017-May-20 08:25N 05°25' E 100°21'0 0.0
2017-May-20 07:55N 05°25' E 100°21'0 0.0
2017-May-20 07:25N 05°25' E 100°21'0 0.0
2017-May-20 06:59N 05°25' E 100°21'0 0.0
2017-May-20 06:29N 05°25' E 100°21'3 6.1
2017-May-20 06:00N 05°24' E 100°18'3436.2 190 / 141007.0 5.4 32.029.430.0
2017-May-20 05:59N 05°25' E 100°21'0 0.0
2017-May-20 05:29N 05°25' E 100°21'0 0.0
2017-May-20 04:59N 05°25' E 100°21'0 0.0
2017-May-20 04:28N 05°25' E 100°21'0 0.0
2017-May-20 03:58N 05°25' E 100°21'0 0.0
2017-May-20 03:28N 05°25' E 100°21'0 0.0
2017-May-20 02:58N 05°25' E 100°21'1 2.6
2017-May-20 02:29N 05°26' E 100°21'612.1
2017-May-20 02:00N 05°32' E 100°18'711.4
2017-May-20 01:24N 05°35' E 100°12'3 8.7
2017-May-20 01:00N 05°37' E 100°09'5 8.7
2017-May-20 00:26N 05°39' E 100°05'512.3
2017-May-20 00:00N 05°36' E 100°00'5999.4 110 / 121007.0 5.4 28.025.329.0
2017-May-19 23:59N 05°40' E 100°02'0 0.5
2017-May-19 23:29N 05°40' E 100°02'2 0.4
2017-May-19 18:12N 05°39' E 100°04'522.3
2017-May-19 18:00N 05°36' E 100°00'4 3.5 180 / 21008.0 5.4 29.026.331.0
2017-May-19 16:46N 05°39' E 100°03'0 0.4
2017-May-19 16:30N 05°38' E 100°03'0 0.3
2017-May-19 16:00N 05°38' E 100°03'1 1.2
2017-May-19 15:02N 05°38' E 100°04'1 9.0
2017-May-19 14:59N 05°37' E 100°05'9 9.3
2017-May-19 13:58N 05°35' E 100°14'612.6
2017-May-19 13:31N 05°31' E 100°18'611.7
2017-May-19 13:01N 05°26' E 100°21'1 1.6
2017-May-19 12:29N 05°25' E 100°21'3 6.2
2017-May-19 12:00N 05°24' E 100°18'3227.2 150 / 81008.0 5.4 30.027.430.0
2017-May-19 11:59N 05°25' E 100°21'0 0.0
2017-May-19 11:29N 05°25' E 100°21'0 0.0
2017-May-19 10:59N 05°25' E 100°21'0 0.0
2017-May-19 10:29N 05°25' E 100°21'0 0.0
2017-May-19 09:59N 05°25' E 100°21'0 0.0
2017-May-19 09:29N 05°25' E 100°21'0 0.0
2017-May-19 08:59N 05°25' E 100°21'0 0.0
2017-May-19 08:29N 05°25' E 100°21'0 0.0
2017-May-19 07:59N 05°25' E 100°21'0 0.0
2017-May-19 07:29N 05°25' E 100°21'0 0.0
2017-May-19 06:59N 05°25' E 100°21'0 0.0
2017-May-19 06:29N 05°25' E 100°21'3 6.2
2017-May-19 06:00N 05°24' E 100°18'   190 / 181008.0 5.4 32.029.430.0
Track history (hours):
 
Tides and Currents Weather Stations Pressure Air Temp Water Temp Dewpoint Dewpoint Depression Visibility Wind Speed Wind Dir Waves Ship Positions

Norwegian Sea

Operator: Norwegian Cruise Line

Last reported at 2017-May-29 06:00 UTC. Time now 2017-May-29 11:31 UTC.
Position N 07°48' E 098°24'.

Length 216 m; draft 7.2 m.

Type: Passenger vessel. MMSI: 308188000.

Wind from 160 at 8 knots

Barometer 1006.0 mb
Air temperature 32.0 ° C
Visibility: greater than 5.4 NM
Dewpoint 29.4 ° C
Water temperature 30.0 ° C

Date/timePositionNaut miles runAvg speedWind from/ knotsBaromVisibWave heightAir tempDewpointWater temp
2017-May-29 06:00N 07°48' E 098°24'46 7.6 160 / 81006.0 5.4 32.029.430.0
2017-May-29 00:00N 07°06' E 098°42'48 8.0 170 / 91006.0 5.4 28.025.329.0
2017-May-28 18:00N 06°24' E 099°06'59 9.9 150 / 21007.0 5.4 30.027.430.0
2017-May-28 12:00N 05°42' E 099°48'1117.2 200 / 71005.0 5.4 30.026.027.0
2017-May-28 11:22N 05°43' E 099°59'913.0
2017-May-28 10:41N 05°38' E 100°06'413.0
2017-May-28 10:23N 05°37' E 100°10'512.5
2017-May-28 10:00N 05°35' E 100°14'612.4
2017-May-28 09:30N 05°31' E 100°19'611.5
2017-May-28 09:00N 05°25' E 100°21'0 0.6
2017-May-28 08:26N 05°25' E 100°21'0 0.0
2017-May-28 08:00N 05°25' E 100°21'0 0.0
2017-May-28 07:30N 05°25' E 100°21'0 0.0
2017-May-28 07:00N 05°25' E 100°21'0 0.0
2017-May-28 06:26N 05°25' E 100°21'3 6.8
2017-May-28 06:00N 05°24' E 100°18'349.9 200 / 61006.0 5.4 32.029.430.0
2017-May-28 05:56N 05°25' E 100°21'0 0.0
2017-May-28 05:20N 05°25' E 100°21'0 0.0
2017-May-28 05:00N 05°25' E 100°21'0 0.0
2017-May-28 04:28N 05°25' E 100°21'0 0.0
2017-May-28 03:52N 05°25' E 100°21'0 0.0
2017-May-28 03:22N 05°25' E 100°21'0 0.0
2017-May-28 02:52N 05°25' E 100°21'0 0.0
2017-May-28 02:30N 05°25' E 100°21'0 0.0
2017-May-28 02:00N 05°25' E 100°21'2 4.9
2017-May-28 01:30N 05°27' E 100°21'610.7
2017-May-28 00:59N 05°32' E 100°17'611.3
2017-May-28 00:29N 05°35' E 100°13'1428.1
2017-May-28 00:00N 05°30' E 100°00'10335.6 110 / 121006.0 5.4 28.025.329.0
2017-May-27 23:58N 05°36' E 100°07'3 6.3
2017-May-27 23:30N 05°35' E 100°05'1 0.3
2017-May-27 20:55N 05°35' E 100°05'0 0.5
2017-May-27 20:27N 05°36' E 100°05'0 0.5
2017-May-27 19:58N 05°36' E 100°05'0 0.5
2017-May-27 19:30N 05°36' E 100°05'0 0.8
2017-May-27 18:58N 05°37' E 100°05'1 0.7
2017-May-27 18:10N 05°37' E 100°05'527.6
2017-May-27 18:00N 05°36' E 100°00'412.0 180 / 81007.0 5.4 31.027.030.0
2017-May-27 17:38N 05°37' E 100°04'0 0.7
2017-May-27 17:28N 05°37' E 100°04'0 0.7
2017-May-27 17:00N 05°37' E 100°04'0 0.7
2017-May-27 16:30N 05°37' E 100°04'2 1.0
2017-May-27 14:58N 05°36' E 100°05'4 7.9
2017-May-27 14:29N 05°36' E 100°09'1010.8
2017-May-27 13:30N 05°31' E 100°18'612.9
2017-May-27 13:01N 05°26' E 100°21'0 0.8
2017-May-27 12:25N 05°25' E 100°21'0 0.0
2017-May-27 11:59N 05°25' E 100°21'0 0.0
2017-May-27 11:27N 05°25' E 100°21'0 0.0
2017-May-27 10:57N 05°25' E 100°21'0 0.0
2017-May-27 10:21N 05°25' E 100°21'0 0.0
2017-May-27 09:57N 05°25' E 100°21'0 0.0
2017-May-27 09:27N 05°25' E 100°21'0 0.0
2017-May-27 08:57N 05°25' E 100°21'0 0.0
2017-May-27 08:27N 05°25' E 100°21'0 0.0
2017-May-27 07:57N 05°25' E 100°21'0 0.0
2017-May-27 07:21N 05°25' E 100°21'0 0.0
2017-May-27 06:57N 05°25' E 100°21'0 0.0
2017-May-27 06:27N 05°25' E 100°21'3 6.5
2017-May-27 06:00N 05°24' E 100°18'382.0 340 / 51007.0 5.4 32.029.430.0
2017-May-27 05:57N 05°25' E 100°21'0 0.0
2017-May-27 05:27N 05°25' E 100°21'0 0.0
2017-May-27 04:57N 05°25' E 100°21'0 0.0
2017-May-27 04:27N 05°25' E 100°21'0 0.0
2017-May-27 03:57N 05°25' E 100°21'0 0.0
2017-May-27 03:27N 05°25' E 100°21'0 0.0
2017-May-27 03:00N 05°25' E 100°21'1 3.0
2017-May-27 02:30N 05°27' E 100°21'611.6
2017-May-27 02:00N 05°32' E 100°18'611.6
2017-May-27 01:30N 05°35' E 100°13'5 8.4
2017-May-27 00:54N 05°38' E 100°09'4 8.3
2017-May-27 00:26N 05°40' E 100°06'715.7
2017-May-27 00:00N 05°36' E 100°00'742.8 120 / 91007.0 5.4 28.025.329.0
2017-May-26 23:50N 05°40' E 100°06'1 1.3
2017-May-26 23:24N 05°39' E 100°06'0 1.1
2017-May-26 23:00N 05°39' E 100°06'1 0.8
2017-May-26 21:43N 05°38' E 100°06'1 0.5
2017-May-26 20:25N 05°38' E 100°05'0 0.4
2017-May-26 20:00N 05°38' E 100°05'0 0.7
2017-May-26 19:17N 05°38' E 100°04'0 0.7
2017-May-26 18:38N 05°39' E 100°04'0 0.5
2017-May-26 18:30N 05°39' E 100°04'0 0.5
2017-May-26 18:00N 05°39' E 100°04'41012.4
2017-May-26 18:00N 05°36' E 100°00'4 9.0 210 / 101007.0 5.4 30.027.430.0
2017-May-26 17:30N 05°39' E 100°03'0 0.3
2017-May-26 17:00N 05°39' E 100°03'0 0.5
2017-May-26 16:30N 05°38' E 100°03'1 0.7
2017-May-26 15:27N 05°38' E 100°03'1 2.4
2017-May-26 14:56N 05°37' E 100°04'4 7.9
2017-May-26 14:27N 05°37' E 100°08'1112.0
2017-May-26 13:30N 05°31' E 100°18'612.5
2017-May-26 13:00N 05°26' E 100°21'1 1.5
2017-May-26 12:30N 05°25' E 100°21'0 0.0
2017-May-26 12:00N 05°25' E 100°21'3719.3
2017-May-26 12:00N 05°24' E 100°18'3 6.0 180 / 91008.0 30.026.027.0
2017-May-26 11:30N 05°25' E 100°21'0 0.0
2017-May-26 11:00N 05°25' E 100°21'0 0.0
2017-May-26 10:30N 05°25' E 100°21'0 0.0
2017-May-26 10:00N 05°25' E 100°21'0 0.0
2017-May-26 09:30N 05°25' E 100°21'0 0.0
2017-May-26 09:00N 05°25' E 100°21'0 0.0
2017-May-26 08:30N 05°25' E 100°21'0 0.0
2017-May-26 08:00N 05°25' E 100°21'0 0.0
2017-May-26 07:30N 05°25' E 100°21'0 0.0
2017-May-26 07:00N 05°25' E 100°21'0 0.0
2017-May-26 06:30N 05°25' E 100°21'0 0.0
2017-May-26 06:00N 05°25' E 100°21'3719.4
2017-May-26 06:00N 05°24' E 100°18'3 6.0 170 / 91009.0 5.4 31.025.627.0
2017-May-26 05:30N 05°25' E 100°21'0 0.0
2017-May-26 05:00N 05°25' E 100°21'0 0.0
2017-May-26 04:30N 05°25' E 100°21'0 0.0
2017-May-26 04:00N 05°25' E 100°21'0 0.0
2017-May-26 03:24N 05°25' E 100°21'0 0.0
2017-May-26 03:00N 05°25' E 100°21'0 0.0
2017-May-26 02:30N 05°25' E 100°21'0 0.0
2017-May-26 02:00N 05°25' E 100°21'0 0.0
2017-May-26 01:30N 05°25' E 100°21'0 0.0
2017-May-26 01:00N 05°25' E 100°21'0 0.0
2017-May-26 00:25N 05°25' E 100°21'0 0.0
2017-May-26 00:01N 05°25' E 100°21'12681.2
2017-May-26 00:00N 05°18' E 100°30'1327.1 080 / 91006.0 5.4 28.025.329.0
2017-May-25 23:31N 05°27' E 100°21'510.5
2017-May-25 23:01N 05°32' E 100°18'611.2
2017-May-25 22:30N 05°35' E 100°13'6 9.9
2017-May-25 21:54N 05°38' E 100°08'8 2.0
2017-May-25 18:00N 05°36' E 100°00'5 6.7 190 / 141008.0 5.4 30.027.431.0
2017-May-25 17:13N 05°40' E 100°03'0 0.1
2017-May-25 17:00N 05°40' E 100°03'0 0.4
2017-May-25 16:29N 05°40' E 100°03'2 1.4
2017-May-25 15:21N 05°39' E 100°05'3 6.8
2017-May-25 14:56N 05°37' E 100°07'8 8.2
2017-May-25 13:59N 05°34' E 100°14'612.0
2017-May-25 13:30N 05°31' E 100°19'612.0
2017-May-25 13:00N 05°25' E 100°21'0 0.6
2017-May-25 12:29N 05°25' E 100°21'3 6.2
2017-May-25 12:00N 05°24' E 100°18'3234.5 210 / 91010.0 5.4 29.026.327.0
2017-May-25 11:59N 05°25' E 100°21'0 0.0
2017-May-25 11:29N 05°25' E 100°21'0 0.0
2017-May-25 10:59N 05°25' E 100°21'0 0.0
2017-May-25 10:29N 05°25' E 100°21'0 0.0
2017-May-25 09:59N 05°25' E 100°21'0 0.0
2017-May-25 09:29N 05°25' E 100°21'0 0.0
2017-May-25 08:59N 05°25' E 100°21'0 0.0
2017-May-25 08:29N 05°25' E 100°21'0 0.0
2017-May-25 07:59N 05°25' E 100°21'0 0.0
2017-May-25 07:29N 05°25' E 100°21'0 0.0
2017-May-25 06:59N 05°25' E 100°21'0 0.0
2017-May-25 06:23N 05°25' E 100°21'3 7.7
2017-May-25 06:00N 05°24' E 100°18'3229.6 220 / 151007.0 5.4 32.029.430.0
2017-May-25 05:59N 05°25' E 100°21'0 0.0
2017-May-25 05:29N 05°25' E 100°21'0 0.0
2017-May-25 04:59N 05°25' E 100°21'0 0.0
2017-May-25 04:29N 05°25' E 100°21'0 0.0
2017-May-25 03:59N 05°25' E 100°21'0 0.0
2017-May-25 03:29N 05°25' E 100°21'0 0.0
2017-May-25 02:59N 05°25' E 100°21'0 0.0
2017-May-25 02:23N 05°25' E 100°21'0 0.0
2017-May-25 01:59N 05°25' E 100°21'0 0.0
2017-May-25 01:29N 05°25' E 100°21'0 0.0
2017-May-25 01:00N 05°25' E 100°21'0 0.0
2017-May-25 00:25N 05°25' E 100°21'0 0.0
2017-May-25 00:00N 05°25' E 100°21'61024.3
2017-May-25 00:00N 05°30' E 100°18'4 8.1 150 / 61007.0 5.4 28.025.329.0
2017-May-24 23:31N 05°27' E 100°21'611.0
2017-May-24 23:01N 05°32' E 100°18'611.5
2017-May-24 22:31N 05°35' E 100°13'5 8.9
2017-May-24 21:56N 05°36' E 100°08'9 8.4
2017-May-24 20:51N 05°32' E 099°60'1 2.3
2017-May-24 20:31N 05°31' E 099°59'0 0.8
2017-May-24 20:00N 05°31' E 099°60'0 0.9
2017-May-24 19:29N 05°32' E 099°60'2 1.2
2017-May-24 18:00N 05°30' E 100°00'6 2.4 110 / 71008.0 5.4 30.027.429.0
2017-May-24 15:37N 05°35' E 100°02'1 4.1
2017-May-24 15:29N 05°35' E 100°02'3 6.0
2017-May-24 14:59N 05°36' E 100°05'3 7.3
2017-May-24 14:30N 05°36' E 100°09'1111.0
2017-May-24 13:30N 05°31' E 100°19'611.5
2017-May-24 13:00N 05°26' E 100°21'1 0.9
2017-May-24 12:28N 05°25' E 100°21'3 6.4
2017-May-24 12:00N 05°24' E 100°18'3100.9 320 / 91008.0 5.4 29.024.930.0
2017-May-24 11:58N 05°25' E 100°21'0 0.0
2017-May-24 11:28N 05°25' E 100°21'0 0.0
2017-May-24 11:00N 05°25' E 100°21'0 0.0
2017-May-24 10:30N 05°25' E 100°21'0 0.0
2017-May-24 09:54N 05°25' E 100°21'0 0.0
2017-May-24 09:30N 05°25' E 100°21'0 0.0
2017-May-24 09:00N 05°25' E 100°21'0 0.0
2017-May-24 08:30N 05°25' E 100°21'0 0.0
2017-May-24 08:00N 05°25' E 100°21'0 0.0
2017-May-24 07:30N 05°25' E 100°21'0 0.0
2017-May-24 07:00N 05°25' E 100°21'0 0.0
2017-May-24 06:30N 05°25' E 100°21'0 0.0
2017-May-24 06:00N 05°25' E 100°21'3838.8
2017-May-24 06:00N 05°24' E 100°18'3 6.1 220 / 61007.0 5.4 32.029.430.0
2017-May-24 05:30N 05°25' E 100°21'0 0.0
2017-May-24 05:00N 05°25' E 100°21'0 0.0
2017-May-24 04:30N 05°25' E 100°21'0 0.0
2017-May-24 04:00N 05°25' E 100°21'2 3.4
2017-May-24 03:30N 05°27' E 100°21'713.0
2017-May-24 03:00N 05°32' E 100°17'612.2
2017-May-24 02:29N 05°37' E 100°13'612.6
2017-May-24 02:01N 05°38' E 100°07'510.6
2017-May-24 01:30N 05°41' E 100°02'2114.1
2017-May-24 00:00N 05°48' E 099°42'55 9.2 200 / 51007.0 5.4 28.025.329.0
2017-May-23 18:00N 06°24' E 099°00'7913.2 320 / 41008.0 5.4 29.026.330.0
2017-May-23 12:00N 07°42' E 098°48'12 2.0 180 / 61006.0 5.4 30.026.030.0
2017-May-23 06:00N 07°54' E 098°48'13 2.2 260 / 161008.0 5.4 32.029.430.0
2017-May-23 00:00N 07°42' E 098°42'19 1.6 290 / 161008.0 5.4 30.027.430.0
2017-May-22 12:00N 07°48' E 098°24'0 0.0 250 / 101007.0 5.4 29.026.327.0
2017-May-22 06:00N 07°48' E 098°24'46 7.6 290 / 61009.0 5.4 32.029.430.0
2017-May-22 00:00N 07°06' E 098°42'48 8.0 290 / 201006.0 5.4 28.025.329.0
2017-May-21 18:00N 06°24' E 099°06'7210.1 260 / 81008.0 5.4 29.026.330.0
2017-May-21 10:52N 05°41' E 100°03'712.6
2017-May-21 10:21N 05°37' E 100°09'412.4
2017-May-21 10:00N 05°35' E 100°13'612.4
2017-May-21 09:30N 05°32' E 100°18'612.5
2017-May-21 09:00N 05°26' E 100°21'1 1.7
2017-May-21 08:25N 05°25' E 100°21'0 0.0
2017-May-21 07:49N 05°25' E 100°21'0 0.0
2017-May-21 07:25N 05°25' E 100°21'0 0.0
2017-May-21 06:55N 05°25' E 100°21'0 0.0
2017-May-21 06:25N 05°25' E 100°21'3 7.1
2017-May-21 06:00N 05°24' E 100°18'339.8 180 / 151006.0 5.4 32.029.430.0
2017-May-21 05:55N 05°25' E 100°21'0 0.0
2017-May-21 05:25N 05°25' E 100°21'0 0.0
2017-May-21 04:55N 05°25' E 100°21'0 0.0
2017-May-21 04:25N 05°25' E 100°21'0 0.0
2017-May-21 03:55N 05°25' E 100°21'0 0.0
2017-May-21 03:25N 05°25' E 100°21'0 0.0
2017-May-21 02:55N 05°25' E 100°21'0 0.0
2017-May-21 02:27N 05°25' E 100°21'0 0.0
2017-May-21 02:00N 05°25' E 100°21'2 2.9
2017-May-21 01:28N 05°27' E 100°21'612.5
2017-May-21 01:00N 05°32' E 100°18'611.8
2017-May-21 00:28N 05°35' E 100°13'1326.3
2017-May-21 00:00N 05°36' E 100°00'849.8 190 / 71006.0 5.4 28.025.329.0
2017-May-20 23:49N 05°39' E 100°08'6 4.6
2017-May-20 22:26N 05°42' E 100°03'1 0.7
2017-May-20 20:38N 05°41' E 100°02'1 0.9
2017-May-20 19:48N 05°40' E 100°02'0 1.0
2017-May-20 19:24N 05°40' E 100°02'0 0.9
2017-May-20 19:00N 05°39' E 100°03'1 0.9
2017-May-20 18:24N 05°39' E 100°03'4 9.3
2017-May-20 18:00N 05°36' E 100°00'432.4 200 / 61006.0 5.4 30.027.431.0
2017-May-20 17:53N 05°38' E 100°03'0 0.9
2017-May-20 17:28N 05°38' E 100°03'0 0.9
2017-May-20 17:00N 05°38' E 100°03'0 0.9
2017-May-20 16:30N 05°37' E 100°03'0 0.8
2017-May-20 16:00N 05°37' E 100°03'0 0.6
2017-May-20 15:29N 05°37' E 100°03'2 2.9
2017-May-20 14:53N 05°37' E 100°05'9 9.5
2017-May-20 13:55N 05°35' E 100°14'512.3
2017-May-20 13:29N 05°31' E 100°18'611.7
2017-May-20 13:00N 05°26' E 100°21'1 2.2
2017-May-20 12:29N 05°25' E 100°21'3 6.2
2017-May-20 12:00N 05°24' E 100°18'3287.0 220 / 81006.0 5.4 30.027.430.0
2017-May-20 11:59N 05°25' E 100°21'0 0.0
2017-May-20 11:29N 05°25' E 100°21'0 0.0
2017-May-20 10:59N 05°25' E 100°21'0 0.0
2017-May-20 10:29N 05°25' E 100°21'0 0.0
2017-May-20 09:59N 05°25' E 100°21'0 0.0
2017-May-20 09:26N 05°25' E 100°21'0 0.0
2017-May-20 09:00N 05°25' E 100°21'0 0.0
2017-May-20 08:25N 05°25' E 100°21'0 0.0
2017-May-20 07:55N 05°25' E 100°21'0 0.0
2017-May-20 07:25N 05°25' E 100°21'0 0.0
2017-May-20 06:59N 05°25' E 100°21'0 0.0
2017-May-20 06:29N 05°25' E 100°21'3 6.1
2017-May-20 06:00N 05°24' E 100°18'3436.2 190 / 141007.0 5.4 32.029.430.0
2017-May-20 05:59N 05°25' E 100°21'0 0.0
2017-May-20 05:29N 05°25' E 100°21'0 0.0
2017-May-20 04:59N 05°25' E 100°21'0 0.0
2017-May-20 04:28N 05°25' E 100°21'0 0.0
2017-May-20 03:58N 05°25' E 100°21'0 0.0
2017-May-20 03:28N 05°25' E 100°21'0 0.0
2017-May-20 02:58N 05°25' E 100°21'1 2.6
2017-May-20 02:29N 05°26' E 100°21'612.1
2017-May-20 02:00N 05°32' E 100°18'711.4
2017-May-20 01:24N 05°35' E 100°12'3 8.7
2017-May-20 01:00N 05°37' E 100°09'5 8.7
2017-May-20 00:26N 05°39' E 100°05'512.3
2017-May-20 00:00N 05°36' E 100°00'5999.4 110 / 121007.0 5.4 28.025.329.0
2017-May-19 23:59N 05°40' E 100°02'0 0.5
2017-May-19 23:29N 05°40' E 100°02'2 0.4
2017-May-19 18:12N 05°39' E 100°04'522.3
2017-May-19 18:00N 05°36' E 100°00'4 3.5 180 / 21008.0 5.4 29.026.331.0
2017-May-19 16:46N 05°39' E 100°03'0 0.4
2017-May-19 16:30N 05°38' E 100°03'0 0.3
2017-May-19 16:00N 05°38' E 100°03'1 1.2
2017-May-19 15:02N 05°38' E 100°04'1 9.0
2017-May-19 14:59N 05°37' E 100°05'9 9.3
2017-May-19 13:58N 05°35' E 100°14'612.6
2017-May-19 13:31N 05°31' E 100°18'611.7
2017-May-19 13:01N 05°26' E 100°21'1 1.6
2017-May-19 12:29N 05°25' E 100°21'3 6.2
2017-May-19 12:00N 05°24' E 100°18'3227.2 150 / 81008.0 5.4 30.027.430.0
2017-May-19 11:59N 05°25' E 100°21'0 0.0
2017-May-19 11:29N 05°25' E 100°21'0 0.0
2017-May-19 10:59N 05°25' E 100°21'0 0.0
2017-May-19 10:29N 05°25' E 100°21'0 0.0
2017-May-19 09:59N 05°25' E 100°21'0 0.0
2017-May-19 09:29N 05°25' E 100°21'0 0.0
2017-May-19 08:59N 05°25' E 100°21'0 0.0
2017-May-19 08:29N 05°25' E 100°21'0 0.0
2017-May-19 07:59N 05°25' E 100°21'0 0.0
2017-May-19 07:29N 05°25' E 100°21'0 0.0
2017-May-19 06:59N 05°25' E 100°21'0 0.0
2017-May-19 06:29N 05°25' E 100°21'3 6.2
2017-May-19 06:00N 05°24' E 100°18'   190 / 181008.0 5.4 32.029.430.0

Dump ship's entire track history